createdAt,value
2018-09-07T00:05:38.000Z,1003.751
2018-09-07T00:15:38.000Z,1003.79
2018-09-07T00:25:38.000Z,1003.637
2018-09-07T00:35:38.000Z,1003.658
2018-09-07T00:45:39.000Z,1003.73
2018-09-07T00:55:38.000Z,1003.723
2018-09-07T01:05:38.000Z,1003.714
2018-09-07T01:15:38.000Z,1003.853
2018-09-07T01:25:38.000Z,1003.91
2018-09-07T01:35:38.000Z,1003.935
2018-09-07T01:45:38.000Z,1003.815
2018-09-07T01:55:38.000Z,1003.746
2018-09-07T02:05:38.000Z,1003.863
2018-09-07T02:15:38.000Z,1003.818
2018-09-07T02:25:38.000Z,1003.786
2018-09-07T02:35:38.000Z,1003.769
2018-09-07T02:45:38.000Z,1003.731
2018-09-07T02:55:38.000Z,1003.669
2018-09-07T03:05:38.000Z,1003.704
2018-09-07T03:15:38.000Z,1003.64
2018-09-07T03:25:38.000Z,1003.567
2018-09-07T03:35:38.000Z,1003.406
2018-09-07T03:45:38.000Z,1003.42
2018-09-07T03:55:38.000Z,1003.422
2018-09-07T04:05:38.000Z,1003.458
2018-09-07T04:15:38.000Z,1003.521
2018-09-07T04:25:38.000Z,1003.565
2018-09-07T04:35:38.000Z,1003.613
2018-09-07T04:45:38.000Z,1003.611
2018-09-07T04:55:38.000Z,1003.707
2018-09-07T05:05:38.000Z,1003.757
2018-09-07T05:15:38.000Z,1003.77
2018-09-07T05:25:38.000Z,1003.788
2018-09-07T05:35:38.000Z,1003.793
2018-09-07T05:45:38.000Z,1003.802
2018-09-07T05:55:38.000Z,1003.839
2018-09-07T06:05:38.000Z,1003.853
2018-09-07T06:15:38.000Z,1003.96
2018-09-07T06:25:38.000Z,1003.971
2018-09-07T06:35:38.000Z,1003.953
2018-09-07T06:45:38.000Z,1003.958
2018-09-07T06:55:38.000Z,1003.992
2018-09-07T07:05:38.000Z,1003.995
2018-09-07T07:15:38.000Z,1003.977
2018-09-07T07:25:39.000Z,1004.068
2018-09-07T07:35:39.000Z,1004.093
2018-09-07T07:45:39.000Z,1004.12
2018-09-07T07:55:39.000Z,1004.12
2018-09-07T08:05:39.000Z,1004.143
2018-09-07T08:15:39.000Z,1004.211
2018-09-07T08:25:39.000Z,1004.169
2018-09-07T08:35:39.000Z,1004.158
2018-09-07T08:45:39.000Z,1004.189
2018-09-07T08:55:39.000Z,1004.114
2018-09-07T09:05:39.000Z,1004.173
2018-09-07T09:15:39.000Z,1004.246
2018-09-07T09:25:39.000Z,1004.242
2018-09-07T09:35:39.000Z,1004.265
2018-09-07T09:45:39.000Z,1004.414
2018-09-07T10:05:39.000Z,1004.601
2018-09-07T10:15:39.000Z,1004.726
2018-09-07T10:25:39.000Z,1004.603
2018-09-07T10:35:39.000Z,1004.749
2018-09-07T10:45:39.000Z,1004.782
2018-09-07T10:55:39.000Z,1004.902
2018-09-07T11:05:39.000Z,1004.988
2018-09-07T11:15:39.000Z,1005.132
2018-09-07T11:25:39.000Z,1005.16
2018-09-07T11:35:39.000Z,1005.243
2018-09-07T11:45:39.000Z,1005.247
2018-09-07T11:55:43.000Z,1005.273
2018-09-07T12:05:39.000Z,1005.359
2018-09-07T12:15:39.000Z,1005.417
2018-09-07T12:25:39.000Z,1005.536
2018-09-07T12:35:39.000Z,1005.557
2018-09-07T12:45:39.000Z,1005.539
2018-09-07T12:55:39.000Z,1005.64
2018-09-07T13:05:39.000Z,1005.59
2018-09-07T13:15:39.000Z,1005.658
2018-09-07T13:25:39.000Z,1005.738
2018-09-07T13:35:39.000Z,1005.829
2018-09-07T13:45:39.000Z,1006.058
2018-09-07T13:55:39.000Z,1006.214
2018-09-07T14:05:39.000Z,1006.328
2018-09-07T14:15:39.000Z,1006.446
2018-09-07T14:25:39.000Z,1006.433
2018-09-07T14:35:39.000Z,1006.561
2018-09-07T14:45:39.000Z,1006.577
2018-09-07T14:55:39.000Z,1006.628
2018-09-07T15:05:39.000Z,1006.71
2018-09-07T15:15:39.000Z,1006.701
2018-09-07T15:25:39.000Z,1006.746
2018-09-07T15:35:40.000Z,1006.734
2018-09-07T15:45:40.000Z,1006.905
2018-09-07T15:55:40.000Z,1007.052
2018-09-07T16:05:40.000Z,1007.052
2018-09-07T16:15:40.000Z,1007.099
2018-09-07T16:25:40.000Z,1007.161
2018-09-07T16:35:40.000Z,1007.301
2018-09-07T16:45:40.000Z,1007.337
2018-09-07T16:55:40.000Z,1007.387
2018-09-07T17:05:40.000Z,1007.38
2018-09-07T17:15:40.000Z,1007.494
2018-09-07T17:25:40.000Z,1007.63
2018-09-07T17:35:40.000Z,1007.79
2018-09-07T17:45:40.000Z,1007.896
2018-09-07T17:55:40.000Z,1008.008
2018-09-07T18:05:40.000Z,1008.088
2018-09-07T18:15:40.000Z,1008.253
2018-09-07T18:25:40.000Z,1008.496
2018-09-07T18:35:40.000Z,1008.645
2018-09-07T18:45:40.000Z,1008.704
2018-09-07T18:55:40.000Z,1008.767
2018-09-07T19:05:40.000Z,1008.82
2018-09-07T19:15:41.000Z,1008.918
2018-09-07T19:25:40.000Z,1008.992
2018-09-07T19:35:40.000Z,1009.01
2018-09-07T19:45:40.000Z,1009.094
2018-09-07T20:05:40.000Z,1009.151
2018-09-07T20:15:40.000Z,1009.168
2018-09-07T20:25:40.000Z,1009.222
2018-09-07T20:55:40.000Z,1009.293
2018-09-07T21:05:40.000Z,1009.297
2018-09-07T21:15:40.000Z,1009.346
2018-09-07T21:25:40.000Z,1009.325
2018-09-07T21:35:40.000Z,1009.445
2018-09-07T21:45:40.000Z,1009.494
2018-09-07T21:55:40.000Z,1009.593
2018-09-07T22:05:40.000Z,1009.567
2018-09-07T22:15:40.000Z,1009.554
2018-09-07T22:25:40.000Z,1009.549
2018-09-07T22:35:40.000Z,1009.555
2018-09-07T22:45:40.000Z,1009.672
2018-09-07T22:55:40.000Z,1009.657
2018-09-07T23:05:40.000Z,1009.665
2018-09-07T23:15:40.000Z,1009.622
2018-09-07T23:25:40.000Z,1009.622
2018-09-07T23:35:41.000Z,1009.638
2018-09-07T23:45:40.000Z,1009.675
2018-09-07T23:55:41.000Z,1009.757
